createdAt,value
2023-02-25T00:00:36.811Z,68.95
2023-02-25T00:03:14.320Z,68.90
2023-02-25T00:05:42.483Z,68.83
2023-02-25T00:08:11.146Z,68.79
2023-02-25T00:10:39.172Z,68.73
2023-02-25T00:13:17.665Z,68.66
2023-02-25T00:15:46.367Z,68.59
2023-02-25T00:18:14.908Z,68.56
2023-02-25T00:20:42.926Z,68.57
2023-02-25T00:23:11.058Z,68.59
2023-02-25T00:25:39.316Z,68.60
2023-02-25T00:28:07.709Z,68.59
2023-02-25T00:30:35.839Z,68.62
2023-02-25T00:33:04.187Z,68.64
2023-02-25T00:35:32.403Z,68.69
2023-02-25T00:38:13.836Z,68.76
2023-02-25T00:40:43.669Z,68.83
2023-02-25T00:43:11.695Z,68.94
2023-02-25T00:45:40.172Z,69.08
2023-02-25T00:48:08.524Z,69.21
2023-02-25T00:50:36.518Z,69.30
2023-02-25T00:53:04.623Z,69.42
2023-02-25T00:55:32.812Z,69.53
2023-02-25T00:58:01.517Z,69.61
2023-02-25T01:00:30.505Z,69.72
2023-02-25T01:02:58.724Z,69.73
2023-02-25T01:05:27.811Z,69.75
2023-02-25T01:07:55.945Z,69.79
2023-02-25T01:10:24.216Z,69.81
2023-02-25T01:12:52.959Z,69.80
2023-02-25T01:15:21.121Z,69.84
2023-02-25T01:17:49.656Z,69.87
2023-02-25T01:20:17.872Z,69.84
2023-02-25T01:22:45.972Z,69.89
2023-02-25T01:25:15.522Z,69.88
2023-02-25T01:27:44.077Z,69.86
2023-02-25T01:30:12.338Z,69.86
2023-02-25T01:32:40.851Z,69.87
2023-02-25T01:35:09.172Z,69.92
2023-02-25T01:37:37.050Z,69.94
2023-02-25T01:40:06.193Z,69.99
2023-02-25T01:42:34.081Z,70.15
2023-02-25T01:45:23.732Z,70.23
2023-02-25T01:47:58.093Z,70.19
2023-02-25T01:50:31.949Z,70.18
2023-02-25T01:53:01.250Z,70.19
2023-02-25T01:55:29.297Z,70.17
2023-02-25T01:57:59.023Z,70.16
2023-02-25T02:00:28.431Z,70.21
2023-02-25T02:02:57.751Z,70.21
2023-02-25T02:05:30.792Z,70.25
2023-02-25T02:07:59.133Z,70.29
2023-02-25T02:10:27.193Z,70.34
2023-02-25T02:12:55.770Z,70.38
2023-02-25T02:15:23.890Z,70.43
2023-02-25T02:18:02.863Z,70.52
2023-02-25T02:20:33.466Z,70.62
2023-02-25T02:23:01.467Z,70.70
2023-02-25T02:25:48.153Z,70.73
2023-02-25T02:28:31.318Z,70.85
2023-02-25T02:31:10.899Z,70.89
2023-02-25T02:34:02.330Z,70.91
2023-02-25T02:36:48.620Z,71.03
2023-02-25T02:39:19.395Z,71.13
2023-02-25T02:41:51.012Z,71.41
2023-02-25T02:44:29.495Z,71.60
2023-02-25T02:47:00.598Z,72.32
2023-02-25T02:49:32.103Z,72.78
2023-02-25T02:52:02.392Z,72.77
2023-02-25T02:54:35.723Z,72.72
2023-02-25T02:57:05.348Z,72.64
2023-02-25T02:59:36.179Z,72.54
2023-02-25T03:02:08.682Z,72.75
2023-02-25T03:04:39.182Z,73.34
2023-02-25T03:07:10.085Z,73.52
2023-02-25T03:09:43.772Z,73.54
2023-02-25T03:12:12.691Z,73.78
2023-02-25T03:14:41.129Z,73.48
2023-02-25T03:17:15.748Z,73.14
2023-02-25T03:19:56.595Z,72.73
2023-02-25T03:22:30.102Z,71.62
2023-02-25T03:25:01.226Z,69.57
2023-02-25T03:27:33.798Z,67.82
2023-02-25T03:30:08.372Z,66.94
2023-02-25T03:32:38.296Z,66.86
2023-02-25T03:35:07.218Z,67.18
2023-02-25T03:37:37.200Z,67.45
2023-02-25T03:40:06.979Z,67.56
2023-02-25T03:42:35.876Z,67.02
2023-02-25T03:45:05.577Z,66.45
2023-02-25T03:47:36.023Z,66.49
2023-02-25T03:50:09.686Z,66.14
2023-02-25T03:52:39.635Z,65.79
2023-02-25T03:55:09.059Z,65.80
2023-02-25T03:57:40.498Z,65.84
2023-02-25T04:00:10.088Z,65.84
2023-02-25T04:02:38.199Z,65.35
2023-02-25T04:05:06.641Z,63.71
2023-02-25T04:07:34.663Z,62.83
2023-02-25T04:10:03.557Z,62.97
2023-02-25T04:12:31.651Z,63.00
2023-02-25T04:15:00.556Z,63.05
2023-02-25T04:17:29.661Z,62.97
2023-02-25T04:19:57.826Z,62.58
2023-02-25T04:22:25.922Z,62.15
2023-02-25T04:24:54.555Z,61.86
2023-02-25T04:27:23.142Z,61.94
2023-02-25T04:29:51.240Z,62.13
2023-02-25T04:32:19.342Z,62.20
2023-02-25T04:34:47.741Z,62.24
2023-02-25T04:37:15.881Z,62.13
2023-02-25T04:39:44.197Z,62.21
2023-02-25T04:42:12.647Z,62.22
2023-02-25T04:44:40.636Z,62.09
2023-02-25T04:47:08.668Z,61.80
2023-02-25T04:49:36.621Z,61.51
2023-02-25T04:52:04.635Z,61.15
2023-02-25T04:54:32.576Z,60.66
2023-02-25T04:57:00.767Z,59.58
2023-02-25T04:59:28.853Z,59.05
2023-02-25T05:01:56.964Z,58.56
2023-02-25T05:04:25.277Z,57.93
2023-02-25T05:06:53.701Z,57.93
2023-02-25T05:09:21.787Z,57.92
2023-02-25T05:11:49.939Z,57.91
2023-02-25T05:14:18.190Z,57.44
2023-02-25T05:16:46.296Z,55.86
2023-02-25T05:19:20.925Z,54.88
2023-02-25T05:21:53.294Z,53.77
2023-02-25T05:24:21.190Z,52.97
2023-02-25T05:26:49.453Z,52.31
2023-02-25T05:29:18.970Z,52.34
2023-02-25T05:31:47.625Z,52.08
2023-02-25T05:34:16.564Z,51.07
2023-02-25T05:36:44.635Z,50.05
2023-02-25T05:39:13.026Z,49.77
2023-02-25T05:41:41.816Z,49.61
2023-02-25T05:44:13.206Z,49.03
2023-02-25T05:46:41.118Z,47.53
2023-02-25T05:49:09.324Z,47.15
2023-02-25T05:51:37.546Z,47.99
2023-02-25T05:54:05.567Z,47.46
2023-02-25T05:56:33.659Z,46.96
2023-02-25T05:59:02.958Z,47.05
2023-02-25T06:01:31.037Z,47.99
2023-02-25T06:04:00.460Z,49.09
2023-02-25T06:06:30.147Z,49.84
2023-02-25T06:08:58.326Z,50.31
2023-02-25T06:11:27.715Z,50.71
2023-02-25T06:13:57.285Z,50.61
2023-02-25T06:16:26.870Z,50.96
2023-02-25T06:18:55.081Z,50.99
2023-02-25T06:21:23.331Z,50.59
2023-02-25T06:23:52.050Z,50.75
2023-02-25T06:26:20.091Z,51.35
2023-02-25T06:28:48.638Z,51.50
2023-02-25T06:31:18.193Z,51.41
2023-02-25T06:33:46.506Z,51.63
2023-02-25T06:36:15.339Z,51.67
2023-02-25T06:38:44.439Z,51.48
2023-02-25T06:41:20.625Z,50.29
2023-02-25T06:43:49.032Z,50.17
2023-02-25T06:46:17.118Z,48.76
2023-02-25T06:48:45.153Z,47.85
2023-02-25T06:51:13.531Z,47.10
2023-02-25T06:53:42.807Z,44.88
2023-02-25T06:56:12.699Z,44.18
2023-02-25T06:58:41.426Z,44.02
2023-02-25T07:01:11.573Z,44.40
2023-02-25T07:03:39.990Z,44.38
2023-02-25T07:06:08.285Z,43.15
2023-02-25T07:08:36.566Z,43.28
2023-02-25T07:11:20.524Z,43.50
2023-02-25T07:13:49.643Z,41.65
2023-02-25T07:16:18.049Z,40.76
2023-02-25T07:18:46.121Z,39.93
2023-02-25T07:21:14.134Z,38.71
2023-02-25T07:23:42.437Z,36.05
2023-02-25T07:26:11.655Z,33.01
2023-02-25T07:28:40.473Z,32.14
2023-02-25T07:31:13.960Z,31.22
2023-02-25T07:33:42.070Z,32.03
2023-02-25T07:36:11.736Z,31.89
2023-02-25T07:38:39.857Z,31.69
2023-02-25T07:41:09.404Z,30.68
2023-02-25T07:43:37.435Z,28.89
2023-02-25T07:46:07.274Z,28.40
2023-02-25T07:48:36.925Z,26.92
2023-02-25T07:51:09.939Z,26.02
2023-02-25T07:53:38.286Z,24.40
2023-02-25T07:56:07.426Z,22.84
2023-02-25T07:58:36.507Z,23.06
2023-02-25T08:01:11.962Z,23.11
2023-02-25T08:03:39.955Z,23.45
2023-02-25T08:06:08.074Z,23.93
2023-02-25T08:08:36.875Z,23.76
2023-02-25T08:11:06.079Z,23.41
2023-02-25T08:13:34.542Z,23.68
2023-02-25T08:16:07.251Z,23.59
2023-02-25T08:18:35.583Z,22.94
2023-02-25T08:21:04.147Z,21.95
2023-02-25T08:23:32.563Z,21.11
2023-02-25T08:26:00.984Z,19.85
2023-02-25T08:28:31.795Z,18.32
2023-02-25T08:31:01.717Z,17.26
2023-02-25T08:33:30.516Z,15.90
2023-02-25T08:36:06.305Z,14.91
2023-02-25T08:38:34.418Z,14.45
2023-02-25T08:41:02.458Z,13.84
2023-02-25T08:43:32.353Z,12.93
2023-02-25T08:46:01.274Z,12.25
2023-02-25T08:48:29.905Z,11.98
2023-02-25T08:51:03.787Z,11.59
2023-02-25T08:53:31.820Z,11.07
2023-02-25T08:56:02.022Z,11.15
2023-02-25T08:58:30.652Z,11.24
2023-02-25T09:00:58.757Z,11.18
2023-02-25T09:03:26.772Z,10.80
2023-02-25T09:05:55.489Z,10.84
2023-02-25T09:08:23.487Z,11.13
2023-02-25T09:10:52.066Z,11.19
2023-02-25T09:13:20.398Z,10.77
2023-02-25T09:15:56.574Z,10.55
2023-02-25T09:18:25.509Z,10.31
2023-02-25T09:20:53.590Z,10.69
2023-02-25T09:23:21.810Z,11.01
2023-02-25T09:25:50.248Z,10.96
2023-02-25T09:28:18.256Z,10.94
2023-02-25T09:30:47.490Z,11.52
2023-02-25T09:33:16.325Z,12.46
2023-02-25T09:35:44.988Z,13.20
2023-02-25T09:38:12.900Z,14.10
2023-02-25T09:40:45.282Z,15.11
2023-02-25T09:43:20.429Z,15.67
2023-02-25T09:45:49.725Z,16.31
2023-02-25T09:48:20.252Z,16.63
2023-02-25T09:50:50.746Z,16.43
2023-02-25T09:53:18.797Z,15.69
2023-02-25T09:55:48.584Z,14.93
2023-02-25T09:58:35.879Z,14.77
2023-02-25T10:01:16.596Z,14.12
2023-02-25T10:03:50.708Z,14.08
2023-02-25T10:06:18.679Z,14.11
2023-02-25T10:09:05.450Z,14.68
2023-02-25T10:12:03.285Z,15.34
2023-02-25T10:14:43.224Z,16.24
2023-02-25T10:17:16.048Z,16.58
2023-02-25T10:19:46.828Z,17.01
2023-02-25T10:22:26.724Z,17.35
2023-02-25T10:24:58.606Z,17.39
2023-02-25T10:27:33.233Z,16.79
2023-02-25T10:30:22.440Z,16.25
2023-02-25T10:32:50.968Z,16.28
2023-02-25T10:35:22.046Z,16.73
2023-02-25T10:37:50.564Z,17.06
2023-02-25T10:40:20.619Z,17.08
2023-02-25T10:42:53.706Z,16.96
2023-02-25T10:45:29.171Z,17.22
2023-02-25T10:48:13.039Z,17.34
2023-02-25T10:50:46.227Z,17.16
2023-02-25T10:53:18.390Z,16.48
2023-02-25T10:55:48.585Z,16.54
2023-02-25T10:58:25.937Z,16.68
2023-02-25T11:00:56.065Z,15.70
2023-02-25T11:03:25.018Z,15.37
2023-02-25T11:06:07.460Z,14.44
2023-02-25T11:08:35.686Z,14.07
2023-02-25T11:11:05.217Z,13.12
2023-02-25T11:13:35.967Z,12.35
2023-02-25T11:16:06.897Z,12.13
2023-02-25T11:18:35.806Z,11.73
2023-02-25T11:21:08.103Z,11.15
2023-02-25T11:23:42.419Z,10.45
2023-02-25T11:26:17.999Z,10.47
2023-02-25T11:28:48.308Z,10.38
2023-02-25T11:31:22.353Z,10.20
2023-02-25T11:34:00.687Z,10.18
2023-02-25T11:36:33.846Z,10.33
2023-02-25T11:39:07.393Z,10.19
2023-02-25T11:41:35.501Z,10.19
2023-02-25T11:44:32.733Z,10.16
2023-02-25T11:47:03.675Z,9.51
2023-02-25T11:49:43.007Z,9.40
2023-02-25T11:52:11.279Z,9.62
2023-02-25T11:54:51.061Z,9.44
2023-02-25T11:57:19.007Z,9.40
2023-02-25T11:59:50.601Z,8.86
2023-02-25T12:02:41.143Z,8.79
2023-02-25T12:05:12.381Z,8.85
2023-02-25T12:07:55.347Z,8.58
2023-02-25T12:10:35.557Z,8.94
2023-02-25T12:13:06.697Z,9.92
2023-02-25T12:15:53.322Z,11.26
2023-02-25T12:18:40.390Z,12.33
2023-02-25T12:21:41.897Z,12.80
2023-02-25T12:24:19.310Z,12.74
2023-02-25T12:27:02.965Z,13.20
2023-02-25T12:29:34.201Z,13.79
2023-02-25T12:32:21.062Z,14.18
2023-02-25T12:35:12.549Z,14.57
2023-02-25T12:38:03.356Z,14.60
2023-02-25T12:40:50.529Z,14.70
2023-02-25T12:43:18.481Z,14.76
2023-02-25T12:46:09.566Z,14.74
2023-02-25T12:48:56.540Z,14.48
2023-02-25T12:51:34.238Z,14.56
2023-02-25T12:54:22.627Z,14.94
2023-02-25T12:57:03.266Z,14.92
2023-02-25T12:59:34.210Z,15.32
2023-02-25T13:02:18.200Z,15.67
2023-02-25T13:04:58.195Z,15.69
2023-02-25T13:07:44.946Z,16.01
2023-02-25T13:10:24.461Z,16.36
2023-02-25T13:12:52.443Z,16.61
2023-02-25T13:15:23.661Z,16.91
2023-02-25T13:17:58.191Z,17.06
2023-02-25T13:20:45.541Z,16.95
2023-02-25T13:23:22.595Z,16.97
2023-02-25T13:26:03.623Z,17.32
2023-02-25T13:28:42.588Z,17.18
2023-02-25T13:31:29.715Z,17.14
2023-02-25T13:34:18.023Z,17.18
2023-02-25T13:36:49.063Z,17.28
2023-02-25T13:39:39.486Z,17.43
2023-02-25T13:42:27.925Z,17.66
2023-02-25T13:45:16.493Z,17.72
2023-02-25T13:48:13.949Z,18.13
2023-02-25T13:50:48.616Z,18.36
2023-02-25T13:53:17.155Z,18.48
2023-02-25T13:56:04.334Z,18.20
2023-02-25T13:59:05.023Z,18.77
2023-02-25T14:01:38.743Z,19.77
2023-02-25T14:04:26.216Z,20.71
2023-02-25T14:07:13.124Z,20.72
2023-02-25T14:09:50.812Z,21.41
2023-02-25T14:12:41.870Z,21.48
2023-02-25T14:15:18.799Z,21.30
2023-02-25T14:17:47.248Z,20.69
2023-02-25T14:20:24.372Z,20.72
2023-02-25T14:22:56.973Z,21.08
2023-02-25T14:25:25.178Z,21.17
2023-02-25T14:28:19.710Z,21.13
2023-02-25T14:31:00.855Z,22.07
2023-02-25T14:33:32.089Z,22.57
2023-02-25T14:36:15.746Z,22.67
2023-02-25T14:38:55.928Z,25.66
2023-02-25T14:41:35.757Z,30.97
2023-02-25T14:44:07.683Z,32.75
2023-02-25T14:47:01.083Z,34.45
2023-02-25T14:49:47.439Z,35.62
2023-02-25T14:52:18.194Z,35.97
2023-02-25T14:54:46.146Z,35.46
2023-02-25T14:57:23.159Z,35.10
2023-02-25T15:00:23.471Z,34.66
2023-02-25T15:02:54.542Z,35.05
2023-02-25T15:05:35.192Z,35.00
2023-02-25T15:08:32.469Z,36.01
2023-02-25T15:11:26.911Z,36.46
2023-02-25T15:14:14.008Z,37.05
2023-02-25T15:17:00.452Z,38.46
2023-02-25T15:19:39.384Z,38.11
2023-02-25T15:22:21.447Z,37.37
2023-02-25T15:24:50.172Z,39.18
2023-02-25T15:27:36.605Z,39.92
2023-02-25T15:30:09.252Z,39.98
2023-02-25T15:33:06.424Z,38.95
2023-02-25T15:35:34.340Z,38.25
2023-02-25T15:38:05.025Z,41.41
2023-02-25T15:40:33.074Z,42.33
2023-02-25T15:43:21.484Z,40.58
2023-02-25T15:46:12.723Z,40.34
2023-02-25T15:48:42.851Z,41.71
2023-02-25T15:51:12.242Z,43.31
2023-02-25T15:53:41.871Z,43.73
2023-02-25T15:56:30.152Z,44.42
2023-02-25T15:58:59.074Z,42.99
2023-02-25T16:01:27.429Z,42.73
2023-02-25T16:03:55.937Z,41.91
2023-02-25T16:06:39.167Z,41.27
2023-02-25T16:09:10.063Z,39.86
2023-02-25T16:11:39.817Z,39.09
2023-02-25T16:14:28.039Z,39.55
2023-02-25T16:16:57.818Z,39.30
2023-02-25T16:19:27.864Z,39.85
2023-02-25T16:22:04.037Z,39.99
2023-02-25T16:24:32.568Z,39.52
2023-02-25T16:27:03.479Z,40.15
2023-02-25T16:29:51.017Z,39.30
2023-02-25T16:32:37.809Z,39.20
2023-02-25T16:35:08.961Z,39.78
2023-02-25T16:37:40.015Z,40.51
2023-02-25T16:40:28.239Z,41.16
2023-02-25T16:42:58.287Z,41.60
2023-02-25T16:45:31.834Z,41.65
2023-02-25T16:48:02.178Z,42.36
2023-02-25T16:50:30.966Z,42.33
2023-02-25T16:52:59.641Z,42.62
2023-02-25T16:55:29.405Z,42.56
2023-02-25T16:58:01.488Z,43.19
2023-02-25T17:00:30.008Z,43.84
2023-02-25T17:03:02.403Z,43.90
2023-02-25T17:05:32.772Z,43.88
2023-02-25T17:08:02.645Z,42.01
2023-02-25T17:10:32.617Z,41.47
2023-02-25T17:13:02.801Z,40.19
2023-02-25T17:15:32.712Z,40.15
2023-02-25T17:18:14.962Z,40.61
2023-02-25T17:20:43.255Z,40.09
2023-02-25T17:23:13.821Z,39.85
2023-02-25T17:25:45.094Z,39.33
2023-02-25T17:28:19.594Z,38.79
2023-02-25T17:30:48.125Z,38.80
2023-02-25T17:33:26.997Z,38.63
2023-02-25T17:36:00.086Z,37.69
2023-02-25T17:38:28.839Z,37.46
2023-02-25T17:40:57.202Z,36.93
2023-02-25T17:43:33.010Z,36.52
2023-02-25T17:46:03.288Z,36.13
2023-02-25T17:48:33.179Z,35.77
2023-02-25T17:51:04.379Z,35.50
2023-02-25T17:53:35.125Z,35.32
2023-02-25T17:56:18.533Z,35.11
2023-02-25T17:58:47.667Z,35.08
2023-02-25T18:01:20.757Z,35.64
2023-02-25T18:03:49.177Z,36.43
2023-02-25T18:06:26.392Z,36.81
2023-02-25T18:08:55.161Z,36.69
2023-02-25T18:11:31.716Z,35.89
2023-02-25T18:14:05.196Z,35.56
2023-02-25T18:16:37.962Z,35.45
2023-02-25T18:19:11.959Z,35.71
2023-02-25T18:21:41.328Z,35.66
2023-02-25T18:24:22.155Z,35.66
2023-02-25T18:27:04.528Z,35.88
2023-02-25T18:29:33.710Z,35.81
2023-02-25T18:32:01.738Z,36.01
2023-02-25T18:34:30.873Z,36.06
2023-02-25T18:36:58.984Z,36.11
2023-02-25T18:39:27.149Z,36.10
2023-02-25T18:41:55.203Z,36.28
2023-02-25T18:44:23.652Z,36.61
2023-02-25T18:46:51.622Z,36.89
2023-02-25T18:49:21.577Z,37.16
2023-02-25T18:51:53.535Z,37.68
2023-02-25T18:54:21.974Z,37.65
2023-02-25T18:56:50.109Z,37.89
2023-02-25T18:59:18.431Z,37.94
2023-02-25T19:01:46.525Z,38.02
2023-02-25T19:04:16.519Z,38.18
2023-02-25T19:06:44.587Z,38.36
2023-02-25T19:09:12.637Z,38.35
2023-02-25T19:11:41.760Z,38.30
2023-02-25T19:14:16.397Z,38.58
2023-02-25T19:16:44.339Z,38.73
2023-02-25T19:19:12.395Z,38.39
2023-02-25T19:21:41.426Z,38.59
2023-02-25T19:24:11.736Z,38.67
2023-02-25T19:26:39.713Z,38.49
2023-02-25T19:29:07.962Z,38.54
2023-02-25T19:31:36.047Z,38.53
2023-02-25T19:34:04.090Z,38.58
2023-02-25T19:36:32.392Z,38.73
2023-02-25T19:39:00.552Z,38.70
2023-02-25T19:41:28.622Z,38.79
2023-02-25T19:43:56.722Z,38.92
2023-02-25T19:46:25.381Z,38.90
2023-02-25T19:48:53.609Z,38.95
2023-02-25T19:51:22.031Z,39.25
2023-02-25T19:53:50.051Z,39.19
2023-02-25T19:56:18.321Z,39.37
2023-02-25T19:58:46.551Z,39.50
2023-02-25T20:01:14.589Z,39.69
2023-02-25T20:03:42.577Z,39.84
2023-02-25T20:06:13.485Z,39.86
2023-02-25T20:08:41.596Z,40.09
2023-02-25T20:11:10.512Z,40.37
2023-02-25T20:13:38.839Z,40.23
2023-02-25T20:16:07.216Z,40.15
2023-02-25T20:18:35.265Z,40.32
2023-02-25T20:21:03.921Z,40.25
2023-02-25T20:23:31.889Z,40.33
2023-02-25T20:26:07.265Z,40.28
2023-02-25T20:28:35.708Z,40.39
2023-02-25T20:31:08.160Z,40.32
2023-02-25T20:33:36.405Z,40.44
2023-02-25T20:36:16.090Z,40.81
2023-02-25T20:39:07.275Z,40.85
2023-02-25T20:41:35.805Z,40.80
2023-02-25T20:44:03.872Z,40.78
2023-02-25T20:46:32.077Z,40.71
2023-02-25T20:49:00.704Z,40.85
2023-02-25T20:51:29.003Z,41.10
2023-02-25T20:53:57.154Z,41.22
2023-02-25T20:56:27.175Z,41.25
2023-02-25T20:58:55.354Z,41.28
2023-02-25T21:01:23.466Z,41.36
2023-02-25T21:03:51.870Z,41.37
2023-02-25T21:06:23.218Z,41.43
2023-02-25T21:08:52.595Z,41.57
2023-02-25T21:11:20.950Z,41.55
2023-02-25T21:13:49.584Z,41.44
2023-02-25T21:16:18.332Z,41.40
2023-02-25T21:18:46.699Z,41.64
2023-02-25T21:21:15.902Z,41.89
2023-02-25T21:23:44.570Z,41.88
2023-02-25T21:26:12.811Z,42.11
2023-02-25T21:28:41.498Z,42.41
2023-02-25T21:31:14.918Z,42.51
2023-02-25T21:33:42.942Z,42.57
2023-02-25T21:36:11.132Z,42.61
2023-02-25T21:38:39.769Z,42.82
2023-02-25T21:41:12.615Z,42.54
2023-02-25T21:43:41.219Z,42.70
2023-02-25T21:46:10.809Z,42.62
2023-02-25T21:48:39.488Z,42.58
2023-02-25T21:51:08.222Z,42.67
2023-02-25T21:53:36.262Z,42.49
2023-02-25T21:56:08.822Z,42.39
2023-02-25T21:58:36.835Z,42.57
2023-02-25T22:01:25.615Z,42.46
2023-02-25T22:03:54.113Z,42.36
2023-02-25T22:06:22.813Z,42.34
2023-02-25T22:08:52.350Z,42.49
2023-02-25T22:11:21.863Z,42.74
2023-02-25T22:13:49.868Z,43.17
2023-02-25T22:16:18.348Z,43.53
2023-02-25T22:18:46.677Z,43.69
2023-02-25T22:21:19.539Z,44.13
2023-02-25T22:23:48.638Z,43.98
2023-02-25T22:26:18.268Z,44.05
2023-02-25T22:28:46.848Z,44.48
2023-02-25T22:31:16.188Z,45.88
2023-02-25T22:33:45.183Z,45.63
2023-02-25T22:36:13.988Z,44.81
2023-02-25T22:38:43.050Z,45.04
2023-02-25T22:41:15.989Z,45.16
2023-02-25T22:43:44.080Z,45.02
2023-02-25T22:46:14.085Z,44.94
2023-02-25T22:48:43.806Z,45.02
2023-02-25T22:51:17.665Z,44.92
2023-02-25T22:53:45.889Z,44.77
2023-02-25T22:56:13.874Z,44.85
2023-02-25T22:58:42.266Z,44.55
2023-02-25T23:01:12.102Z,44.09
2023-02-25T23:03:41.086Z,43.82
2023-02-25T23:06:09.605Z,43.79
2023-02-25T23:08:40.848Z,43.90
2023-02-25T23:11:10.729Z,44.11
2023-02-25T23:13:39.732Z,44.07
2023-02-25T23:16:07.789Z,44.16
2023-02-25T23:18:35.729Z,44.13
2023-02-25T23:21:04.509Z,44.29
2023-02-25T23:23:32.550Z,44.50
2023-02-25T23:26:00.499Z,44.48
2023-02-25T23:28:28.695Z,44.53
2023-02-25T23:30:56.679Z,44.72
2023-02-25T23:33:25.509Z,44.71
2023-02-25T23:35:53.475Z,44.70
2023-02-25T23:38:21.992Z,44.82
2023-02-25T23:40:50.068Z,44.70
2023-02-25T23:43:18.289Z,44.84
2023-02-25T23:45:47.198Z,44.77
2023-02-25T23:48:16.210Z,44.83
2023-02-25T23:50:44.209Z,44.82
2023-02-25T23:53:12.277Z,44.89
2023-02-25T23:55:40.458Z,44.92
2023-02-25T23:58:08.875Z,45.08
